Zubia, Spain
Current Conditions -  °F | °C
As of 11:00 PM on Friday 28 Nov 2014 (Local Time) from LEGR Reporting Station
Scattered Clouds Scattered Clouds  
Wind Chill: 43°   Ceiling: Unl
Heat Index: 43°   Visibility: 6mi
Dew Point: 41°   Wind: 1mph
Humidity: 93%   Direction: NA
Pressure: 29.26"   Gusts: NA
Location:  37.12°N, 3.58°W
Report Text: LEGR 282200Z VRB01KT 9999 FEW060 SCT110 06/05 Q0991
Loading
Personal Weather Stations






























Interactive Weather Map New forecast layout! Learn more

10-Day Weather Forecast

Advertisements
Track Severe Weather on mobile